首页
METAR-TAF:

METAR-TAF

机场 :

諾曼·峰田聖荷西國際機場

聖荷西, 加利福尼亚州, 美国

纬度: 37-21-33N, 经度: 121-55-27W, 海拔: 18米

当前天气观测

该预报发布于57分钟前的23:53 UTC
风速11节,风向北转西北
温度 24°C
湿度 41%
气压 1013 hPa
能見度: 16.1公里
天空无云

METAR: KSJC 202353Z 33011KT 10SM CLR 24/10 A2991 RMK AO2 SLP129 T02440100 10256 20194 57015

时间: 17:50 (00:50 UTC)

预报

该预报发布于1小时和30分钟前的23:20 UTC
预报有效从21日的 00点(UTC)到 21日的 24点(UTC)
风速11节,风向北转西北
能見度: 10公里
天空无云
从 21日的 0500点(UTC)
风速3节,风向多变
能見度: 10公里
天空无云
从 21日的 1800点(UTC)
风速11节,风向西北
能見度: 10公里
少量云层高于25000英尺

TAF: KSJC 202320Z 2100/2124 33011KT P6SM SKC FM210500 VRB03KT P6SM SKC FM211800 32011KT P6SM FEW250

超过4000个机场的气象观测和天气预报(METAR&TAF报告)。

可查询的气象台以黄色和红色小点在地图上表示。

将鼠标移到小点上方,可查看气象台名称。

然后点击查看天气观测和预报。

如需切换地图:点击带黑十字的绿色按钮放大地图;点击带横线的绿色按钮缩小地图;或者点击绿色箭头查看邻近地区的地图。


METAR-TAF: